createdAt,value
2017-10-19T10:50:48.079Z,982.2
2017-10-19T10:51:27.702Z,982.2
2017-10-19T10:51:57.362Z,982.1
2017-10-19T10:52:53.696Z,982.2
2017-10-19T10:53:47.609Z,982
2017-10-19T10:54:47.811Z,982
2017-10-19T10:56:48.697Z,982.2
2017-10-19T10:58:46.479Z,982.2
2017-10-19T11:23:28.864Z,982
2017-10-19T11:23:44.501Z,981.9
2017-10-19T11:25:42.818Z,981.9
2017-10-19T11:26:47.673Z,981.9
2017-10-19T11:28:24.364Z,981.8
2017-10-19T11:28:48.175Z,981.8
2017-10-19T11:30:15.778Z,981.7
2017-10-19T11:30:48.133Z,981.7
2017-10-19T11:31:48.171Z,981.7
2017-10-19T11:32:45.412Z,981.6
2017-10-19T11:34:44.832Z,981.6
2017-10-19T11:35:46.220Z,981.5
2017-10-19T11:36:43.458Z,981.5
2017-10-19T11:39:51.196Z,981.4
2017-10-19T11:40:53.078Z,981.3
2017-10-19T11:41:44.894Z,981.4
2017-10-19T11:42:44.866Z,981.3
2017-10-19T11:43:43.452Z,981.2
2017-10-19T11:44:48.265Z,981.2
2017-10-19T11:45:48.012Z,981.2
2017-10-19T11:46:50.857Z,981.2
2017-10-19T11:48:07.993Z,981.2
2017-10-19T11:49:48.770Z,981.2
2017-10-19T11:50:53.176Z,981.2
2017-10-19T11:51:48.072Z,981.2
2017-10-19T11:52:48.144Z,981.1
2017-10-19T11:53:43.779Z,981.1
2017-10-19T11:54:53.103Z,981
2017-10-19T11:55:45.539Z,981.1
2017-10-19T11:56:57.434Z,981
2017-10-19T11:57:42.671Z,981.1
2017-10-19T11:58:57.750Z,981
